Onde está Casais dos Cardosos en Portugal?

 

Casais dos Cardosos está situado na região Lisboa em Portugal!

Buscar o nome de uma cidade:

Casas Fuente Leiva, Casa do Judeu, Casa Ciriaghi, Casa Veche, Casa da Loba

Aqui você vai encontrar a localização de Casais dos Cardosos em um mapa.
Para ver como ele atualmente parece, abaixo estão algumas fotos da região, com webcams online.
Você também pode encontrar a distância para as principais cidades da região e de cidades do resto do Portugal.

Cidades do mundo
Cidades em Portugal que também são encontradas em outros países do mundo.


Onde está Casais dos Cardosos no mapa?




Webcams perto Casais dos Cardosos

Benavente › North-East: Santarém - AIrport, METAR: BENAV 180005Z 36004KT 17/14 Q1015.


Benavente › North-East: Santarém - AIrport, METAR: BENAV 180005Z 36004KT 17/14 Q1015 - Dia
Actual
Benavente › North-East: Santarém - AIrport, METAR: BENAV 180005Z 36004KT 17/14 Q1015 - Actual

Nossa Senhora do Populo, Coto e Sao Gregorio: Caldas da Rainha.


Nossa Senhora do Populo, Coto e Sao Gregorio: Caldas da Rainha - Dia
Actual
Nossa Senhora do Populo, Coto e Sao Gregorio: Caldas da Rainha - Actual

Parque das Nacoes › South: Rua Vasco da Gama.


Parque das Nacoes › South: Rua Vasco da Gama - Dia
Actual
Parque das Nacoes › South: Rua Vasco da Gama - Actual

Webcams provided by webcams.travel


Distâncias

Onde está Casais dos Cardosos em relação a outros lugares?

Top 10 cidades em Lisboa e distância de Casais dos Cardosos.

Cidade#Populaçãokmmilhas
Lisbon15177985132
Amadora21788565132
Queluz31033985333
Loures4662304226
Rio de Mouro5546955534
Odivelas6546234729
São Domingos de Rana7467176138
Cascais8364366842
Alcabideche9333156440
Póvoa de Santa Iria10289003421

Top 10 cidades em Portugal e distância de Casais dos Cardosos.

Cidade # Populaçãokmmilhas
Lisbon15177985132
Porto2249630225140
Amadora31788565132
Braga4121393272169
Setúbal51171096641
Coimbra610658012678
Queluz71033985333
Funchal8980411022635
Vila Nova de Gaia970810224139
Loures10662304226



Info

Estatística e Geografia

Portugal é composta de 15299 cidades em 20 regiões.

A região de Lisboa tem 1032 cidades.

Casais dos Cardosos é o número 364 na região Lisboa.

A cidade é o número 3613 na Portugal.

Onde está Casais dos Cardosos en Portugal?